createdAt,value
2023-01-23T00:01:15.425Z,73.20
2023-01-23T00:03:42.203Z,73.30
2023-01-23T00:06:14.376Z,73.20
2023-01-23T00:08:42.986Z,73.20
2023-01-23T00:11:13.460Z,73.30
2023-01-23T00:13:40.187Z,73.30
2023-01-23T00:16:08.659Z,73.20
2023-01-23T00:18:35.806Z,73.30
2023-01-23T00:21:07.938Z,73.30
2023-01-23T00:23:34.771Z,73.40
2023-01-23T00:26:09.108Z,73.30
2023-01-23T00:28:35.852Z,73.40
2023-01-23T00:31:07.938Z,73.30
2023-01-23T00:33:35.470Z,73.40
2023-01-23T00:36:02.595Z,73.30
2023-01-23T00:38:29.331Z,73.40
2023-01-23T00:40:56.432Z,73.30
2023-01-23T00:43:24.366Z,73.30
2023-01-23T00:45:51.843Z,73.30
2023-01-23T00:48:18.771Z,73.30
2023-01-23T00:50:45.471Z,73.30
2023-01-23T00:53:13.082Z,73.30
2023-01-23T00:55:40.645Z,73.30
2023-01-23T00:58:08.427Z,73.30
2023-01-23T01:00:36.499Z,73.20
2023-01-23T01:03:03.413Z,73.30
2023-01-23T01:05:30.120Z,73.30
2023-01-23T01:07:56.766Z,73.20
2023-01-23T01:10:23.369Z,73.30
2023-01-23T01:12:50.021Z,73.20
2023-01-23T01:15:16.721Z,73.30
2023-01-23T01:17:43.366Z,73.20
2023-01-23T01:20:11.376Z,73.20
2023-01-23T01:22:38.108Z,73.30
2023-01-23T01:25:05.052Z,73.20
2023-01-23T01:27:31.757Z,73.20
2023-01-23T01:29:58.442Z,73.20
2023-01-23T01:32:25.277Z,73.20
2023-01-23T01:34:52.693Z,73.30
2023-01-23T01:37:22.642Z,73.20
2023-01-23T01:39:49.450Z,73.30
2023-01-23T01:42:16.441Z,73.30
2023-01-23T01:44:54.886Z,73.30
2023-01-23T01:47:21.691Z,73.40
2023-01-23T01:49:50.131Z,73.30
2023-01-23T01:52:20.184Z,73.30
2023-01-23T01:54:53.263Z,73.30
2023-01-23T01:57:25.370Z,73.30
2023-01-23T01:59:55.110Z,73.30
2023-01-23T02:02:36.346Z,73.30
2023-01-23T02:05:11.323Z,73.40
2023-01-23T02:07:43.848Z,73.40
2023-01-23T02:10:11.563Z,73.40
2023-01-23T02:12:38.786Z,73.40
2023-01-23T02:15:07.535Z,73.40
2023-01-23T02:17:36.971Z,73.40
2023-01-23T02:20:19.698Z,73.40
2023-01-23T02:23:16.201Z,73.40
2023-01-23T02:25:47.753Z,73.40
2023-01-23T02:28:16.753Z,73.40
2023-01-23T02:30:48.028Z,73.40
2023-01-23T02:33:20.792Z,73.40
2023-01-23T02:35:48.141Z,73.40
2023-01-23T02:38:15.077Z,73.40
2023-01-23T02:40:42.784Z,73.30
2023-01-23T02:43:14.294Z,73.40
2023-01-23T02:45:41.122Z,73.40
2023-01-23T02:48:08.857Z,73.30
2023-01-23T02:50:35.538Z,73.40
2023-01-23T02:53:02.155Z,73.40
2023-01-23T02:55:33.239Z,73.40
2023-01-23T02:58:19.884Z,73.40
2023-01-23T03:00:47.485Z,73.40
2023-01-23T03:03:15.815Z,73.40
2023-01-23T03:05:42.727Z,73.40
2023-01-23T03:08:09.449Z,73.40
2023-01-23T03:10:36.117Z,73.40
2023-01-23T03:13:04.563Z,73.40
2023-01-23T03:15:31.702Z,73.40
2023-01-23T03:17:58.333Z,73.40
2023-01-23T03:20:27.126Z,73.40
2023-01-23T03:22:54.655Z,73.40
2023-01-23T03:25:21.540Z,73.40
2023-01-23T03:27:48.874Z,73.40
2023-01-23T03:30:17.029Z,73.40
2023-01-23T03:32:44.695Z,73.40
2023-01-23T03:35:16.606Z,73.40
2023-01-23T03:37:44.053Z,73.40
2023-01-23T03:40:42.294Z,73.40
2023-01-23T03:43:09.655Z,73.50
2023-01-23T03:45:36.433Z,73.30
2023-01-23T03:48:03.098Z,73.40
2023-01-23T03:50:29.715Z,73.40
2023-01-23T03:52:56.488Z,73.40
2023-01-23T03:55:23.069Z,73.40
2023-01-23T03:57:49.716Z,73.40
2023-01-23T04:00:17.986Z,73.40
2023-01-23T04:02:44.982Z,73.40
2023-01-23T04:05:11.852Z,73.40
2023-01-23T04:07:38.937Z,73.30
2023-01-23T04:10:05.797Z,73.40
2023-01-23T04:12:32.577Z,73.40
2023-01-23T04:14:59.281Z,73.30
2023-01-23T04:17:26.041Z,73.30
2023-01-23T04:19:52.674Z,73.40
2023-01-23T04:22:19.440Z,73.40
2023-01-23T04:24:46.024Z,73.30
2023-01-23T04:27:12.656Z,73.30
2023-01-23T04:29:39.364Z,73.30
2023-01-23T04:32:06.022Z,73.30
2023-01-23T04:34:32.907Z,73.40
2023-01-23T04:36:59.482Z,73.40
2023-01-23T04:39:26.136Z,73.40
2023-01-23T04:41:52.778Z,73.40
2023-01-23T04:44:22.660Z,73.30
2023-01-23T04:46:51.023Z,73.40
2023-01-23T04:49:18.825Z,73.30
2023-01-23T04:51:48.138Z,73.30
2023-01-23T04:54:15.546Z,73.30
2023-01-23T04:56:42.977Z,73.30
2023-01-23T04:59:10.158Z,73.40
2023-01-23T05:01:37.285Z,73.40
2023-01-23T05:04:04.751Z,73.40
2023-01-23T05:06:31.867Z,73.40
2023-01-23T05:08:58.594Z,73.40
2023-01-23T05:11:25.285Z,73.40
2023-01-23T05:13:52.085Z,73.40
2023-01-23T05:16:18.831Z,73.50
2023-01-23T05:18:45.521Z,73.40
2023-01-23T05:21:12.180Z,73.50
2023-01-23T05:23:38.807Z,73.50
2023-01-23T05:26:05.503Z,73.50
2023-01-23T05:28:32.160Z,73.50
2023-01-23T05:30:58.828Z,73.50
2023-01-23T05:33:25.875Z,73.50
2023-01-23T05:35:52.493Z,73.50
2023-01-23T05:38:19.188Z,73.50
2023-01-23T05:40:45.825Z,73.50
2023-01-23T05:43:15.245Z,73.50
2023-01-23T05:45:42.393Z,73.50
2023-01-23T05:48:09.307Z,73.60
2023-01-23T05:50:36.180Z,73.50
2023-01-23T05:53:02.983Z,73.50
2023-01-23T05:55:29.699Z,73.50
2023-01-23T05:57:56.417Z,73.50
2023-01-23T06:00:23.380Z,73.50
2023-01-23T06:02:50.312Z,73.50
2023-01-23T06:05:17.130Z,73.50
2023-01-23T06:07:44.288Z,73.50
2023-01-23T06:10:11.005Z,73.50
2023-01-23T06:12:37.708Z,73.60
2023-01-23T06:15:04.992Z,73.50
2023-01-23T06:17:31.808Z,73.60
2023-01-23T06:19:58.835Z,73.50
2023-01-23T06:22:25.506Z,73.50
2023-01-23T06:24:52.701Z,73.50
2023-01-23T06:27:19.453Z,73.50
2023-01-23T06:29:46.172Z,73.50
2023-01-23T06:32:13.339Z,73.60
2023-01-23T06:34:40.103Z,73.60
2023-01-23T06:37:06.840Z,73.60
2023-01-23T06:39:34.191Z,73.60
2023-01-23T06:42:00.959Z,73.50
2023-01-23T06:44:27.871Z,73.60
2023-01-23T06:46:54.513Z,73.50
2023-01-23T06:49:21.320Z,73.60
2023-01-23T06:51:48.190Z,73.60
2023-01-23T06:54:14.868Z,73.60
2023-01-23T06:56:41.518Z,73.60
2023-01-23T06:59:08.337Z,73.60
2023-01-23T07:01:35.353Z,73.60
2023-01-23T07:04:02.037Z,73.70
2023-01-23T07:06:30.984Z,73.70
2023-01-23T07:08:57.643Z,73.80
2023-01-23T07:11:24.430Z,73.70
2023-01-23T07:13:51.310Z,73.70
2023-01-23T07:16:17.981Z,73.70
2023-01-23T07:18:45.578Z,73.70
2023-01-23T07:21:12.432Z,73.80
2023-01-23T07:23:39.128Z,73.70
2023-01-23T07:26:09.723Z,73.70
2023-01-23T07:28:37.388Z,73.70
2023-01-23T07:31:04.696Z,73.70
2023-01-23T07:33:32.001Z,73.70
2023-01-23T07:35:58.837Z,73.70
2023-01-23T07:38:26.035Z,73.80
2023-01-23T07:40:53.299Z,73.70
2023-01-23T07:43:20.000Z,73.70
2023-01-23T07:45:46.732Z,73.70
2023-01-23T07:48:13.401Z,73.70
2023-01-23T07:50:40.228Z,73.70
2023-01-23T07:53:07.230Z,73.70
2023-01-23T07:55:34.286Z,73.70
2023-01-23T07:58:01.620Z,73.80
2023-01-23T08:00:30.209Z,73.60
2023-01-23T08:02:57.384Z,73.50
2023-01-23T08:05:24.427Z,73.60
2023-01-23T08:08:00.718Z,73.70
2023-01-23T08:10:34.791Z,73.70
2023-01-23T08:13:01.569Z,73.60
2023-01-23T08:15:28.200Z,73.70
2023-01-23T08:17:54.950Z,73.60
2023-01-23T08:20:23.037Z,73.70
2023-01-23T08:22:49.888Z,73.60
2023-01-23T08:25:16.670Z,73.70
2023-01-23T08:27:43.525Z,73.60
2023-01-23T08:30:10.843Z,73.60
2023-01-23T08:32:37.597Z,73.60
2023-01-23T08:35:04.934Z,73.70
2023-01-23T08:37:33.199Z,73.70
2023-01-23T08:39:59.949Z,73.70
2023-01-23T08:42:26.775Z,73.80
2023-01-23T08:44:53.380Z,73.80
2023-01-23T08:47:20.132Z,73.80
2023-01-23T08:49:46.870Z,73.80
2023-01-23T08:52:13.543Z,73.70
2023-01-23T08:54:40.200Z,73.80
2023-01-23T08:57:07.095Z,73.80
2023-01-23T08:59:33.817Z,73.70
2023-01-23T09:02:00.621Z,73.80
2023-01-23T09:04:27.489Z,73.70
2023-01-23T09:06:55.364Z,73.80
2023-01-23T09:09:22.066Z,74.00
2023-01-23T09:11:48.718Z,73.90
2023-01-23T09:14:15.325Z,73.90
2023-01-23T09:16:42.073Z,73.90
2023-01-23T09:19:10.336Z,73.90
2023-01-23T09:21:37.074Z,73.90
2023-01-23T09:24:04.171Z,73.90
2023-01-23T09:26:30.806Z,73.90
2023-01-23T09:28:57.502Z,73.90
2023-01-23T09:31:24.282Z,73.90
2023-01-23T09:33:51.190Z,73.80
2023-01-23T09:36:17.841Z,73.80
2023-01-23T09:38:44.487Z,74.00
2023-01-23T09:41:18.752Z,74.00
2023-01-23T09:44:01.300Z,74.00
2023-01-23T09:46:37.396Z,74.10
2023-01-23T09:49:43.195Z,74.10
2023-01-23T09:52:15.266Z,74.10
2023-01-23T09:54:50.530Z,74.00
2023-01-23T09:57:33.013Z,74.10
2023-01-23T10:00:03.680Z,74.30
2023-01-23T10:02:30.462Z,74.10
2023-01-23T10:04:58.675Z,74.00
2023-01-23T10:07:34.412Z,74.10
2023-01-23T10:10:19.878Z,74.00
2023-01-23T10:13:02.775Z,74.00
2023-01-23T10:16:14.013Z,74.40
2023-01-23T10:19:12.589Z,74.20
2023-01-23T10:21:43.483Z,74.30
2023-01-23T10:24:25.177Z,74.20
2023-01-23T10:26:53.599Z,74.30
2023-01-23T10:29:34.647Z,74.30
2023-01-23T10:32:04.455Z,74.50
2023-01-23T10:34:47.344Z,74.30
2023-01-23T10:37:25.382Z,74.40
2023-01-23T10:40:02.472Z,74.40
2023-01-23T10:42:29.390Z,74.40
2023-01-23T10:44:56.035Z,74.40
2023-01-23T10:47:38.703Z,74.30
2023-01-23T10:50:06.248Z,74.50
2023-01-23T10:52:36.796Z,74.40
2023-01-23T10:55:06.377Z,74.30
2023-01-23T10:57:46.034Z,74.20
2023-01-23T11:00:27.652Z,74.30
2023-01-23T11:02:54.686Z,74.30
2023-01-23T11:05:51.969Z,74.20
2023-01-23T11:08:40.806Z,74.30
2023-01-23T11:11:16.735Z,74.30
2023-01-23T11:13:45.125Z,74.30
2023-01-23T11:16:18.588Z,74.00
2023-01-23T11:19:08.408Z,74.10
2023-01-23T11:21:37.740Z,73.90
2023-01-23T11:24:30.649Z,73.90
2023-01-23T11:27:15.757Z,74.00
2023-01-23T11:30:08.229Z,73.80
2023-01-23T11:33:01.020Z,74.00
2023-01-23T11:35:55.836Z,73.90
2023-01-23T11:38:52.002Z,73.90
2023-01-23T11:41:23.182Z,73.80
2023-01-23T11:43:49.843Z,73.80
2023-01-23T11:46:33.741Z,73.70
2023-01-23T11:49:07.079Z,73.80
2023-01-23T11:51:49.551Z,73.60
2023-01-23T11:54:42.747Z,73.80
2023-01-23T11:57:44.686Z,73.70
2023-01-23T12:00:14.352Z,73.60
2023-01-23T12:03:14.979Z,73.40
2023-01-23T12:05:46.325Z,73.60
2023-01-23T12:08:34.117Z,73.50
2023-01-23T12:11:16.333Z,73.50
2023-01-23T12:14:00.004Z,73.50
2023-01-23T12:16:50.471Z,73.50
2023-01-23T12:19:35.844Z,73.50
2023-01-23T12:22:42.889Z,73.40
2023-01-23T12:25:18.483Z,73.40
2023-01-23T12:27:50.361Z,73.40
2023-01-23T12:30:29.113Z,73.30
2023-01-23T12:33:05.280Z,73.40
2023-01-23T12:35:50.101Z,73.30
2023-01-23T12:38:25.339Z,73.30
2023-01-23T12:41:23.413Z,73.30
2023-01-23T12:44:18.635Z,73.30
2023-01-23T12:47:04.238Z,73.30
2023-01-23T12:49:44.972Z,73.30
2023-01-23T12:52:23.486Z,73.30
2023-01-23T12:55:06.266Z,73.20
2023-01-23T12:57:52.438Z,73.30
2023-01-23T13:00:44.284Z,73.20
2023-01-23T13:03:46.026Z,73.30
2023-01-23T13:06:34.918Z,73.30
2023-01-23T13:09:26.648Z,73.20
2023-01-23T13:12:11.578Z,73.20
2023-01-23T13:15:03.587Z,73.20
2023-01-23T13:17:58.813Z,73.20
2023-01-23T13:20:56.283Z,73.10
2023-01-23T13:23:22.876Z,73.10
2023-01-23T13:25:50.877Z,73.10
2023-01-23T13:28:49.678Z,73.10
2023-01-23T13:31:50.703Z,73.10
2023-01-23T13:34:17.610Z,73.00
2023-01-23T13:36:45.626Z,73.00
2023-01-23T13:39:18.005Z,72.90
2023-01-23T13:41:48.841Z,73.00
2023-01-23T13:44:41.630Z,72.90
2023-01-23T14:22:11.023Z,72.80
2023-01-23T14:24:44.734Z,72.80
2023-01-23T14:27:44.437Z,72.80
2023-01-23T14:30:21.202Z,72.70
2023-01-23T14:32:47.806Z,72.60
2023-01-23T14:35:30.081Z,72.50
2023-01-23T14:38:07.822Z,72.40
2023-01-23T14:40:48.821Z,72.40
2023-01-23T14:43:23.125Z,72.30
2023-01-23T14:45:57.324Z,72.30
2023-01-23T14:48:24.140Z,72.30
2023-01-23T14:51:02.675Z,72.30
2023-01-23T14:53:29.395Z,72.30
2023-01-23T14:55:59.801Z,72.30
2023-01-23T14:58:28.604Z,72.30
2023-01-23T15:00:55.995Z,72.30
2023-01-23T15:03:58.422Z,72.40
2023-01-23T15:06:25.312Z,72.40
2023-01-23T15:08:52.219Z,72.40
2023-01-23T15:11:26.941Z,72.40
2023-01-23T15:13:55.257Z,72.40
2023-01-23T15:16:29.118Z,72.50
2023-01-23T15:19:03.134Z,72.40
2023-01-23T15:21:32.563Z,72.60
2023-01-23T15:24:14.863Z,72.60
2023-01-23T15:26:44.194Z,72.70
2023-01-23T15:29:10.854Z,72.70
2023-01-23T15:31:40.733Z,72.70
2023-01-23T15:34:32.738Z,72.70
2023-01-23T15:37:09.824Z,72.70
2023-01-23T15:39:56.265Z,72.70
2023-01-23T15:42:30.374Z,72.70
2023-01-23T15:45:01.163Z,72.70
2023-01-23T15:47:31.404Z,72.70
2023-01-23T15:50:01.533Z,72.70
2023-01-23T15:52:31.410Z,72.80
2023-01-23T15:55:01.497Z,72.80
2023-01-23T15:57:28.195Z,72.70
2023-01-23T15:59:54.963Z,72.70
2023-01-23T16:02:33.534Z,72.70
2023-01-23T16:05:02.583Z,72.60
2023-01-23T16:07:37.800Z,72.70
2023-01-23T16:10:15.450Z,72.60
2023-01-23T16:12:42.527Z,72.60
2023-01-23T16:15:17.625Z,72.60
2023-01-23T16:17:44.971Z,72.60
2023-01-23T16:20:23.006Z,72.60
2023-01-23T16:22:52.921Z,72.70
2023-01-23T16:25:43.362Z,72.70
2023-01-23T16:28:19.419Z,72.60
2023-01-23T16:30:47.390Z,72.60
2023-01-23T16:33:14.526Z,72.70
2023-01-23T16:35:41.697Z,72.70
2023-01-23T16:38:24.994Z,72.70
2023-01-23T16:40:53.292Z,72.70
2023-01-23T16:43:21.490Z,72.70
2023-01-23T16:45:48.227Z,72.70
2023-01-23T16:48:25.395Z,72.70
2023-01-23T16:51:01.221Z,72.70
2023-01-23T16:53:38.949Z,72.60
2023-01-23T16:56:06.885Z,72.60
2023-01-23T16:58:39.921Z,72.50
2023-01-23T17:01:21.624Z,72.40
2023-01-23T17:04:00.553Z,72.40
2023-01-23T17:06:27.510Z,72.30
2023-01-23T17:08:56.096Z,72.40
2023-01-23T17:11:42.489Z,72.50
2023-01-23T17:14:17.689Z,72.40
2023-01-23T17:16:45.444Z,72.50
2023-01-23T17:19:41.832Z,72.60
2023-01-23T17:22:24.385Z,72.70
2023-01-23T17:24:51.115Z,72.70
2023-01-23T17:27:17.918Z,72.70
2023-01-23T17:29:44.766Z,72.80
2023-01-23T17:32:35.786Z,72.80
2023-01-23T17:35:06.508Z,72.80
2023-01-23T17:37:34.921Z,72.80
2023-01-23T17:40:01.815Z,72.80
2023-01-23T17:42:28.437Z,72.80
2023-01-23T17:44:55.073Z,72.80
2023-01-23T17:47:21.881Z,72.80
2023-01-23T17:49:54.618Z,72.80
2023-01-23T17:52:21.868Z,72.90
2023-01-23T17:54:49.565Z,72.90
2023-01-23T17:57:16.237Z,72.90
2023-01-23T17:59:42.966Z,72.90
2023-01-23T18:02:30.067Z,72.90
2023-01-23T18:04:56.786Z,72.90
2023-01-23T18:07:23.454Z,72.90
2023-01-23T18:09:50.851Z,72.90
2023-01-23T18:12:29.281Z,72.90
2023-01-23T18:15:19.818Z,72.90
2023-01-23T18:18:35.210Z,72.90
2023-01-23T18:21:03.547Z,72.90
2023-01-23T18:23:37.208Z,72.90
2023-01-23T18:26:22.596Z,72.90
2023-01-23T18:29:03.451Z,72.90
2023-01-23T18:32:01.420Z,72.90
2023-01-23T18:34:53.005Z,72.90
2023-01-23T18:37:56.346Z,72.90
2023-01-23T18:40:44.082Z,72.90
2023-01-23T18:43:22.993Z,72.90
2023-01-23T18:45:50.348Z,73.00
2023-01-23T18:48:25.095Z,73.00
2023-01-23T18:51:08.312Z,73.00
2023-01-23T18:53:53.706Z,72.90
2023-01-23T18:56:34.115Z,72.90
2023-01-23T18:59:26.809Z,73.00
2023-01-23T19:01:58.294Z,72.90
2023-01-23T19:04:38.278Z,72.90
2023-01-23T19:07:20.609Z,72.90
2023-01-23T19:09:48.286Z,73.00
2023-01-23T19:12:31.308Z,72.90
2023-01-23T19:15:10.997Z,72.90
2023-01-23T19:17:42.035Z,72.90
2023-01-23T19:20:28.214Z,72.90
2023-01-23T19:23:19.949Z,73.00
2023-01-23T19:25:47.993Z,72.90
2023-01-23T19:28:15.668Z,73.00
2023-01-23T19:30:43.108Z,72.90
2023-01-23T19:33:16.828Z,72.90
2023-01-23T19:35:44.812Z,72.80
2023-01-23T19:38:11.509Z,73.00
2023-01-23T19:40:38.456Z,72.90
2023-01-23T19:43:14.052Z,73.10
2023-01-23T19:45:41.546Z,73.10
2023-01-23T19:48:09.039Z,73.00
2023-01-23T19:50:35.749Z,73.10
2023-01-23T19:53:02.737Z,73.00
2023-01-23T19:55:32.543Z,73.00
2023-01-23T19:57:59.529Z,73.00
2023-01-23T20:00:29.591Z,72.90
2023-01-23T20:02:56.889Z,72.90
2023-01-23T20:05:24.444Z,73.00
2023-01-23T20:07:51.181Z,72.90
2023-01-23T20:10:18.026Z,73.00
2023-01-23T20:12:52.599Z,73.00
2023-01-23T20:15:22.262Z,72.90
2023-01-23T20:17:49.308Z,73.00
2023-01-23T20:20:16.627Z,72.90
2023-01-23T20:22:44.181Z,72.90
2023-01-23T20:25:13.430Z,72.80
2023-01-23T20:27:41.118Z,72.90
2023-01-23T20:30:12.379Z,72.90
2023-01-23T20:32:39.270Z,72.70
2023-01-23T20:35:06.516Z,72.80
2023-01-23T20:37:33.287Z,72.80
2023-01-23T20:39:59.997Z,72.90
2023-01-23T20:42:26.703Z,73.00
2023-01-23T20:44:53.371Z,72.90
2023-01-23T20:47:20.026Z,72.90
2023-01-23T20:49:46.637Z,72.90
2023-01-23T20:52:31.900Z,73.00
2023-01-23T20:54:58.532Z,73.00
2023-01-23T20:57:45.198Z,72.90
2023-01-23T21:00:12.374Z,72.90
2023-01-23T21:02:39.074Z,72.90
2023-01-23T21:05:05.859Z,72.90
2023-01-23T21:07:33.220Z,72.90
2023-01-23T21:09:59.877Z,72.80
2023-01-23T21:12:26.598Z,72.80
2023-01-23T21:14:53.273Z,73.00
2023-01-23T21:17:20.085Z,72.90
2023-01-23T21:19:47.757Z,72.90
2023-01-23T21:22:14.440Z,72.90
2023-01-23T21:24:41.165Z,72.70
2023-01-23T21:27:07.886Z,72.80
2023-01-23T21:29:34.704Z,72.80
2023-01-23T21:32:01.464Z,72.90
2023-01-23T21:34:28.305Z,72.90
2023-01-23T21:36:55.011Z,72.90
2023-01-23T21:39:22.022Z,72.90
2023-01-23T21:41:48.707Z,72.80
2023-01-23T21:44:15.449Z,72.90
2023-01-23T21:46:42.226Z,72.80
2023-01-23T21:49:09.070Z,72.80
2023-01-23T21:51:36.311Z,72.90
2023-01-23T21:54:03.221Z,72.90
2023-01-23T21:56:30.480Z,73.00
2023-01-23T21:58:57.157Z,73.00
2023-01-23T22:01:57.635Z,73.00
2023-01-23T22:04:24.294Z,73.00
2023-01-23T22:06:55.029Z,73.00
2023-01-23T22:09:24.754Z,73.00
2023-01-23T22:11:51.847Z,73.00
2023-01-23T22:14:19.296Z,73.00
2023-01-23T22:16:49.483Z,73.00
2023-01-23T22:19:19.711Z,72.90
2023-01-23T22:21:47.032Z,72.90
2023-01-23T22:24:14.838Z,73.00
2023-01-23T22:26:41.985Z,72.90
2023-01-23T22:29:08.765Z,72.90
2023-01-23T22:31:35.731Z,72.90
2023-01-23T22:34:02.669Z,73.00
2023-01-23T22:36:29.424Z,72.90
2023-01-23T22:38:56.354Z,73.10
2023-01-23T22:41:23.761Z,73.10
2023-01-23T22:43:54.502Z,73.00
2023-01-23T22:46:21.984Z,72.90
2023-01-23T22:48:49.092Z,72.90
2023-01-23T22:51:24.944Z,72.90
2023-01-23T22:53:52.696Z,72.80
2023-01-23T22:56:19.514Z,72.90
2023-01-23T22:58:47.557Z,72.90
2023-01-23T23:01:15.042Z,73.00
2023-01-23T23:03:42.148Z,73.00
2023-01-23T23:06:12.193Z,73.00
2023-01-23T23:08:39.484Z,73.00
2023-01-23T23:11:13.392Z,73.10
2023-01-23T23:13:41.404Z,73.00
2023-01-23T23:16:31.171Z,73.00
2023-01-23T23:19:01.026Z,72.90
2023-01-23T23:21:31.577Z,72.90
2023-01-23T23:23:59.653Z,73.10
2023-01-23T23:26:28.127Z,73.00
2023-01-23T23:28:55.400Z,73.10
2023-01-23T23:31:22.247Z,73.10
2023-01-23T23:33:48.940Z,73.00
2023-01-23T23:36:15.527Z,73.10
2023-01-23T23:38:42.187Z,73.10
2023-01-23T23:41:12.938Z,73.00
2023-01-23T23:43:40.146Z,73.00
2023-01-23T23:46:08.357Z,72.90
2023-01-23T23:48:36.479Z,73.00
2023-01-23T23:51:05.974Z,73.00
2023-01-23T23:53:33.491Z,73.00
2023-01-23T23:56:00.258Z,72.90
2023-01-23T23:58:27.105Z,72.90
